< < Back
Terminal Aerodrome Forecast


Current Version              Previous Versions:   1  2  3  4  5  6  7  8  9  

Terminal Aerodrome Forecast

471
FTUS44 KMOB 241203 AAA
TAFPNS
TAF AMD
KPNS 241203Z 2412/2512 09007KT 5SM BR SCT015 OVC020
      TEMPO 2414/2418 5SM TSRA BKN010CB OVC020
     FM241800 14015KT P6SM VCTS BKN020CB
     FM250100 15010KT P6SM BKN030=

Latest METAR

082
SAUS70 KWBC 251100 RRK
MTRPNS
METAR KPNS 251053Z 14010KT 10SM BKN014 BKN020 BKN060 26/23 A3011 RMK AO2
SLP197 T02560233


USA.gov is the U.S. government's official web portal to all federal, state and local government web resources and services.